Time;durP1;ratioP1;P1;durP2;ratioP2;P2;SDS_P1;SDS_P2;PMS_P1;PMS_P2;Temp;Humidity;BMP_temperature;BMP_pressure;BME280_temperature;BME280_humidity;BME280_pressure;Samples;Min_cycle;Max_cycle;Signal;HPM_P1;HPM_P2
2021/08/06 00:00:22;;;;;;;3.75;1.10;;;;;;;23.25;52.59;100422.84;5046720;28;20145;-64
2021/08/06 00:02:48;;;;;;;2.83;0.70;;;;;;;23.30;52.48;100433.94;5032455;28;20553;-62
2021/08/06 00:05:16;;;;;;;2.00;0.88;;;;;;;23.12;52.54;100435.53;5036785;28;20046;-63
2021/08/06 00:07:43;;;;;;;7.90;1.27;;;;;;;22.94;52.31;100432.25;5036545;28;20132;-62
2021/08/06 00:10:11;;;;;;;2.63;1.00;;;;;;;22.93;52.62;100428.53;5038850;28;20043;-64
2021/08/06 00:12:38;;;;;;;3.40;1.05;;;;;;;22.82;53.10;100441.66;5058191;28;20045;-64
2021/08/06 00:15:06;;;;;;;2.92;1.95;;;;;;;22.70;53.00;100407.56;5040541;28;20053;-65
2021/08/06 00:17:33;;;;;;;2.42;0.93;;;;;;;22.84;53.04;100425.03;5051370;28;20087;-65
2021/08/06 00:20:00;;;;;;;4.60;1.30;;;;;;;22.75;53.08;100429.25;5034041;28;20132;-69
2021/08/06 00:22:27;;;;;;;4.43;1.30;;;;;;;22.75;53.36;100426.41;5035481;28;20478;-71
2021/08/06 00:24:54;;;;;;;5.32;1.33;;;;;;;22.78;53.73;100417.97;5038737;28;20140;-69
2021/08/06 00:27:21;;;;;;;2.97;0.80;;;;;;;22.86;53.54;100411.25;5044468;28;20046;-65
2021/08/06 00:29:48;;;;;;;9.68;1.88;;;;;;;23.09;53.82;100424.88;5031391;28;20084;-66
2021/08/06 00:32:14;;;;;;;5.18;1.45;;;;;;;23.19;53.21;100415.78;5036893;28;20049;-62
2021/08/06 00:34:41;;;;;;;3.97;1.02;;;;;;;23.29;52.97;100417.22;5034544;28;20124;-67
2021/08/06 00:37:08;;;;;;;3.45;1.48;;;;;;;23.23;53.08;100410.97;5033864;28;20080;-76
2021/08/06 00:39:35;;;;;;;2.50;1.20;;;;;;;23.09;53.66;100387.84;5040317;28;20131;-76
2021/08/06 00:42:02;;;;;;;2.85;1.27;;;;;;;23.25;53.59;100397.19;5051258;28;20076;-77
2021/08/06 00:44:29;;;;;;;4.25;1.60;;;;;;;23.13;53.52;100398.13;5037397;28;20128;-64
2021/08/06 00:46:56;;;;;;;6.10;1.70;;;;;;;23.05;53.46;100390.63;5038367;28;20077;-69
2021/08/06 00:49:23;;;;;;;1.90;1.00;;;;;;;23.13;53.28;100383.06;5054165;28;20392;-72
2021/08/06 00:51:50;;;;;;;3.53;1.27;;;;;;;23.00;53.68;100382.34;5044320;28;20132;-65
2021/08/06 00:54:18;;;;;;;5.95;1.52;;;;;;;23.23;53.64;100385.34;5052720;28;20065;-65
2021/08/06 00:56:49;;;;;;;8.00;1.65;;;;;;;23.30;53.51;100376.13;5078215;28;20075;-64
2021/08/06 00:59:16;;;;;;;6.68;1.85;;;;;;;23.36;52.80;100381.19;5084068;28;20552;-64
2021/08/06 01:01:51;;;;;;;5.70;1.65;;;;;;;23.32;52.89;100371.72;5060812;28;20144;-64
2021/08/06 01:04:58;;;;;;;4.72;1.40;;;;;;;23.25;53.18;100371.56;5047480;28;20041;-63
2021/08/06 01:07:34;;;;;;;5.35;1.15;;;;;;;23.13;53.24;100363.94;5030589;28;20079;-65
2021/08/06 01:10:06;;;;;;;3.00;1.15;;;;;;;23.16;53.03;100356.69;5053773;28;20052;-62
2021/08/06 01:12:40;;;;;;;4.07;1.25;;;;;;;22.87;53.00;100323.81;5030708;28;20573;-62
2021/08/06 01:15:11;;;;;;;5.82;1.65;;;;;;;22.84;53.84;100345.31;5059434;28;20555;-62
2021/08/06 01:17:42;;;;;;;4.90;1.00;;;;;;;22.87;53.60;100343.72;5060486;28;20135;-62
2021/08/06 01:20:13;;;;;;;2.85;1.33;;;;;;;23.05;53.52;100345.03;5057288;28;20664;-62
2021/08/06 01:22:50;;;;;;;3.58;1.48;;;;;;;23.13;53.70;100344.00;5056820;28;20512;-62
2021/08/06 01:25:17;;;;;;;9.82;1.50;;;;;;;23.22;53.71;100348.69;5052043;28;20059;-62
2021/08/06 01:27:47;;;;;;;1.02;0.65;;;;;;;23.28;53.12;100328.09;5068156;28;20465;-61
2021/08/06 01:30:15;;;;;;;2.30;1.15;;;;;;;23.34;53.32;100346.50;5052481;28;20059;-61
2021/08/06 01:32:42;;;;;;;9.02;1.67;;;;;;;23.39;53.28;100343.38;5058039;28;20057;-64
2021/08/06 01:35:09;;;;;;;3.83;1.40;;;;;;;23.43;53.30;100343.47;5061093;28;20052;-65
2021/08/06 01:37:36;;;;;;;3.38;1.30;;;;;;;23.46;53.12;100336.22;5059060;28;20098;-65
2021/08/06 01:40:08;;;;;;;6.80;1.10;;;;;;;23.36;52.82;100324.19;5054774;28;20310;-65
2021/08/06 01:42:54;;;;;;;6.13;1.65;;;;;;;23.28;53.72;100313.00;5060691;28;20139;-65
2021/08/06 01:45:26;;;;;;;4.18;1.10;;;;;;;23.48;53.41;100336.63;5055154;28;20142;-62
2021/08/06 01:47:54;;;;;;;4.90;1.50;;;;;;;23.46;53.59;100333.34;5061401;28;20444;-61
2021/08/06 01:50:34;;;;;;;7.03;1.25;;;;;;;23.49;53.29;100332.63;5058505;28;20445;-62
2021/08/06 01:53:03;;;;;;;3.45;1.02;;;;;;;23.42;53.29;100331.25;5070282;28;20124;-62
2021/08/06 01:55:39;;;;;;;4.13;1.60;;;;;;;23.34;52.97;100309.47;5061325;28;20135;-62
2021/08/06 01:58:11;;;;;;;4.22;1.05;;;;;;;23.52;53.22;100323.28;5046268;28;20115;-59
2021/08/06 02:00:39;;;;;;;5.60;1.30;;;;;;;23.49;52.45;100319.19;5068462;28;20120;-59
2021/08/06 02:03:07;;;;;;;6.47;1.17;;;;;;;23.47;52.24;100318.72;5063309;28;20044;-59
2021/08/06 02:05:35;;;;;;;4.03;1.63;;;;;;;23.52;51.47;100324.13;5055072;28;20053;-59
2021/08/06 02:08:03;;;;;;;2.70;1.00;;;;;;;23.51;51.54;100322.47;5064818;28;20053;-59
2021/08/06 02:10:30;;;;;;;4.95;1.27;;;;;;;23.58;50.60;100327.50;5067011;28;20080;-61
2021/08/06 02:12:57;;;;;;;2.47;1.42;;;;;;;23.61;50.92;100333.28;5054845;28;20071;-62
2021/08/06 02:15:24;;;;;;;7.22;1.85;;;;;;;23.67;50.44;100319.56;5057222;28;20124;-63
2021/08/06 02:17:51;;;;;;;6.85;1.35;;;;;;;23.72;50.90;100324.97;5058024;28;20079;-62
2021/08/06 02:20:19;;;;;;;5.60;1.27;;;;;;;23.73;51.01;100318.09;5062820;28;20135;-64
2021/08/06 02:22:47;;;;;;;6.13;1.33;;;;;;;23.78;51.75;100334.06;5061121;28;20132;-61
2021/08/06 02:25:17;;;;;;;3.00;1.25;;;;;;;23.77;51.44;100318.16;5056567;28;20436;-61
2021/08/06 02:27:45;;;;;;;6.60;1.40;;;;;;;23.73;51.91;100320.13;5053731;28;20049;-61
2021/08/06 02:30:13;;;;;;;7.13;1.60;;;;;;;23.79;51.44;100330.81;5065240;28;20076;-60
2021/08/06 02:32:42;;;;;;;6.32;1.20;;;;;;;23.71;51.33;100325.38;5055238;28;20493;-60
2021/08/06 02:35:10;;;;;;;2.33;1.08;;;;;;;23.51;51.55;100327.34;5069407;28;20533;-59
2021/08/06 02:37:41;;;;;;;6.68;1.73;;;;;;;23.50;51.74;100334.25;5069223;28;20500;-59
2021/08/06 02:40:08;;;;;;;4.90;1.67;;;;;;;23.45;51.87;100317.44;5057163;28;20053;-59
2021/08/06 02:42:36;;;;;;;5.47;1.30;;;;;;;23.47;52.01;100315.88;5063646;28;20609;-59
2021/08/06 02:45:04;;;;;;;3.83;1.60;;;;;;;23.32;51.82;100326.13;5058968;28;20049;-67
2021/08/06 02:47:31;;;;;;;4.30;1.23;;;;;;;23.15;51.92;100321.69;5061665;28;20186;-64
2021/08/06 02:49:58;;;;;;;6.18;1.63;;;;;;;23.15;51.22;100332.25;5036640;28;20132;-64
2021/08/06 02:52:25;;;;;;;3.75;1.40;;;;;;;23.08;51.66;100321.53;5060319;28;20143;-64
2021/08/06 02:54:52;;;;;;;6.78;1.55;;;;;;;22.97;51.37;100322.44;5064665;28;20489;-64
2021/08/06 02:57:20;;;;;;;7.72;1.83;;;;;;;22.78;52.18;100312.63;5065261;28;20048;-64
2021/08/06 02:59:47;;;;;;;9.23;1.30;;;;;;;22.78;51.67;100323.19;5058476;28;20139;-61
2021/08/06 03:02:14;;;;;;;4.50;1.55;;;;;;;22.56;51.82;100301.88;5054758;28;20064;-62
2021/08/06 03:04:41;;;;;;;5.78;1.13;;;;;;;22.66;51.80;100321.25;5053570;28;20059;-62
2021/08/06 03:07:08;;;;;;;3.03;1.38;;;;;;;22.56;51.96;100325.47;5059944;28;20131;-64
2021/08/06 03:09:34;;;;;;;5.07;1.58;;;;;;;22.50;52.00;100320.47;5052348;28;20499;-64
2021/08/06 03:12:01;;;;;;;6.93;1.70;;;;;;;22.48;51.52;100326.50;5060566;28;20400;-62
2021/08/06 03:14:28;;;;;;;5.63;1.50;;;;;;;22.32;51.58;100317.94;5061255;28;20053;-61
2021/08/06 03:16:55;;;;;;;3.35;1.27;;;;;;;22.31;51.70;100321.16;5054827;28;20041;-60
2021/08/06 03:19:22;;;;;;;4.75;1.48;;;;;;;22.28;51.68;100322.72;5055354;28;20124;-61
2021/08/06 03:21:49;;;;;;;7.10;1.73;;;;;;;22.26;51.69;100319.44;5058149;28;20083;-61
2021/08/06 03:24:15;;;;;;;2.75;1.60;;;;;;;22.25;51.09;100312.06;5065998;28;20600;-65
2021/08/06 03:26:42;;;;;;;5.25;1.38;;;;;;;22.29;51.19;100318.69;5055239;28;20143;-68
2021/08/06 03:29:09;;;;;;;5.70;1.83;;;;;;;22.18;51.40;100317.56;5061698;28;20080;-65
2021/08/06 03:31:36;;;;;;;5.63;1.70;;;;;;;21.98;52.08;100320.28;5065406;28;20528;-67
2021/08/06 03:34:03;;;;;;;4.75;1.63;;;;;;;21.72;52.34;100288.66;5055508;28;20132;-67
2021/08/06 03:36:30;;;;;;;4.30;1.55;;;;;;;21.66;52.32;100301.47;5053392;28;20040;-70
2021/08/06 03:38:57;;;;;;;3.97;1.52;;;;;;;21.66;52.32;100301.47;5032705;28;20052;-66
2021/08/06 03:41:24;;;;;;;5.68;1.65;;;;;;;21.87;52.44;100315.47;5034693;28;20060;-68
2021/08/06 03:43:51;;;;;;;5.35;1.52;;;;;;;21.75;52.67;100300.13;5054482;28;20079;-67
2021/08/06 03:46:18;;;;;;;5.88;1.60;;;;;;;21.65;53.02;100300.66;5067258;28;20059;-65
2021/08/06 03:48:44;;;;;;;5.28;1.52;;;;;;;21.62;53.58;100314.75;5067720;28;20135;-67
2021/08/06 03:51:13;;;;;;;2.72;1.60;;;;;;;21.60;53.73;100308.59;5038534;28;20076;-69
2021/08/06 03:53:40;;;;;;;11.85;1.92;;;;;;;21.58;53.75;100310.97;5053229;28;20079;-64
2021/08/06 03:56:07;;;;;;;9.00;2.25;;;;;;;21.50;53.73;100295.72;5055162;28;20156;-63
2021/08/06 03:58:34;;;;;;;7.03;1.85;;;;;;;21.46;53.73;100283.44;5053406;28;20124;-64
2021/08/06 04:01:00;;;;;;;11.43;2.22;;;;;;;21.50;54.19;100293.72;5050212;28;20164;-66
2021/08/06 04:03:27;;;;;;;11.23;1.77;;;;;;;21.59;53.97;100292.72;5076253;28;20512;-65
2021/08/06 04:05:54;;;;;;;10.40;2.53;;;;;;;21.51;54.05;100272.63;5045186;28;20067;-66
2021/08/06 04:08:21;;;;;;;5.57;1.42;;;;;;;21.61;54.14;100293.22;5064487;28;20048;-66
2021/08/06 04:10:48;;;;;;;5.70;1.90;;;;;;;21.63;53.86;100293.66;5056618;28;20132;-66
2021/08/06 04:13:15;;;;;;;3.78;1.50;;;;;;;21.71;53.77;100289.84;5055479;28;20054;-66
2021/08/06 04:15:42;;;;;;;7.53;1.88;;;;;;;21.67;53.33;100286.06;5068787;28;20080;-67
2021/08/06 04:18:08;;;;;;;7.13;2.15;;;;;;;21.51;53.93;100274.66;5082083;28;20139;-68
2021/08/06 04:20:35;;;;;;;7.72;1.75;;;;;;;21.62;54.12;100283.50;5056000;28;20132;-68
2021/08/06 04:23:02;;;;;;;5.28;1.88;;;;;;;21.67;54.01;100286.06;5054119;28;20135;-68
2021/08/06 04:25:29;;;;;;;8.52;1.85;;;;;;;21.73;53.99;100284.63;5066431;28;20591;-70
2021/08/06 04:27:56;;;;;;;3.65;1.67;;;;;;;21.85;53.89;100286.59;5064598;28;20172;-70
2021/08/06 04:30:23;;;;;;;4.35;1.50;;;;;;;21.70;53.62;100269.09;5053406;28;20076;-70
2021/08/06 04:32:50;;;;;;;3.67;1.38;;;;;;;21.84;53.56;100285.72;5061184;28;20076;-70
2021/08/06 04:35:18;;;;;;;6.65;1.27;;;;;;;21.75;53.44;100265.19;5065494;28;20148;-63
2021/08/06 04:37:51;;;;;;;5.82;2.05;;;;;;;21.71;53.77;100247.22;5051417;28;20088;-64
2021/08/06 04:40:19;;;;;;;8.43;2.00;;;;;;;21.95;53.55;100278.34;5060898;28;20131;-61
2021/08/06 04:42:46;;;;;;;5.38;1.67;;;;;;;21.88;53.43;100265.94;5058685;28;20412;-61
2021/08/06 04:45:13;;;;;;;4.70;1.30;;;;;;;21.96;53.53;100294.22;5053591;28;20076;-61
2021/08/06 04:47:52;;;;;;;2.25;1.42;;;;;;;22.01;53.65;100284.56;5066315;28;20084;-61
2021/08/06 04:50:21;;;;;;;3.97;1.83;;;;;;;21.94;53.83;100273.00;5055418;28;20096;-60
2021/08/06 04:52:51;;;;;;;6.40;1.95;;;;;;;21.82;53.83;100287.31;5061165;28;20053;-60
2021/08/06 04:55:18;;;;;;;10.77;2.75;;;;;;;21.73;54.30;100278.94;5059270;28;20447;-61
2021/08/06 04:57:45;;;;;;;6.32;1.80;;;;;;;21.60;54.52;100281.00;5060052;28;20140;-63
2021/08/06 05:00:13;;;;;;;7.80;2.25;;;;;;;21.53;54.52;100278.78;5057749;28;20044;-62
2021/08/06 05:02:40;;;;;;;7.18;2.08;;;;;;;21.47;54.69;100277.41;5061610;28;20072;-62
2021/08/06 05:05:07;;;;;;;8.40;2.50;;;;;;;21.39;55.00;100264.16;5040006;28;20515;-70
2021/08/06 05:07:34;;;;;;;7.88;1.80;;;;;;;21.13;54.91;100233.34;5050565;28;20077;-63
2021/08/06 05:10:01;;;;;;;6.18;2.30;;;;;;;21.40;54.91;100288.56;5065835;28;20053;-63
2021/08/06 05:12:28;;;;;;;12.77;2.30;;;;;;;21.53;54.99;100287.28;5058884;28;20524;-65
2021/08/06 05:14:55;;;;;;;11.98;2.13;;;;;;;21.58;55.09;100288.25;5055048;28;20084;-63
2021/08/06 05:17:22;;;;;;;8.13;2.38;;;;;;;21.40;55.51;100276.34;5068150;28;20068;-60
2021/08/06 05:19:49;;;;;;;6.22;2.22;;;;;;;21.41;56.00;100295.88;5063515;28;20142;-60
2021/08/06 05:22:16;;;;;;;11.15;2.03;;;;;;;21.33;56.28;100282.59;5068270;28;20128;-60
2021/08/06 05:24:43;;;;;;;6.60;1.92;;;;;;;21.34;56.61;100298.50;5059704;28;20461;-60
2021/08/06 05:27:10;;;;;;;6.70;2.28;;;;;;;21.32;56.45;100291.50;5053469;28;20049;-68
2021/08/06 05:29:37;;;;;;;11.93;2.10;;;;;;;21.50;56.26;100292.88;5067044;28;20156;-62
2021/08/06 05:32:04;;;;;;;8.90;2.00;;;;;;;21.27;55.86;100258.50;5059118;28;20123;-63
2021/08/06 05:34:32;;;;;;;8.73;2.10;;;;;;;21.42;56.09;100300.38;5057336;28;20045;-63
2021/08/06 05:36:59;;;;;;;7.65;1.77;;;;;;;21.43;56.15;100295.50;5063142;28;20128;-63
2021/08/06 05:39:26;;;;;;;11.10;1.65;;;;;;;21.45;56.46;100299.66;5059088;28;20465;-62
2021/08/06 05:41:52;;;;;;;7.82;2.00;;;;;;;21.42;56.29;100286.16;5065214;28;20044;-63
2021/08/06 05:44:19;;;;;;;10.70;2.38;;;;;;;21.64;56.18;100298.16;5046446;28;20139;-64
2021/08/06 05:46:46;;;;;;;4.10;1.55;;;;;;;21.58;56.20;100299.63;5070204;28;20604;-63
2021/08/06 05:49:13;;;;;;;4.65;1.45;;;;;;;21.50;56.43;100298.56;5068979;28;20067;-61
2021/08/06 05:51:40;;;;;;;11.07;2.30;;;;;;;21.53;56.37;100304.34;5060790;28;20144;-62
2021/08/06 05:54:07;;;;;;;4.18;1.67;;;;;;;21.66;56.32;100307.16;5055873;28;20195;-59
2021/08/06 05:56:35;;;;;;;10.13;2.10;;;;;;;21.60;55.87;100275.31;5040476;28;20099;-67
2021/08/06 05:59:02;;;;;;;6.97;1.77;;;;;;;21.67;56.25;100298.25;5056456;28;20139;-69
2021/08/06 06:01:29;;;;;;;6.38;2.03;;;;;;;21.56;56.55;100301.97;5058562;28;20115;-71
2021/08/06 06:03:56;;;;;;;9.32;2.40;;;;;;;21.38;56.89;100296.59;5059052;28;20051;-70
2021/08/06 06:06:23;;;;;;;7.13;1.95;;;;;;;21.20;57.39;100303.72;5060386;28;20147;-70
2021/08/06 06:08:54;;;;;;;9.63;2.20;;;;;;;21.06;57.86;100307.78;5057666;28;20052;-71
2021/08/06 06:11:21;;;;;;;9.02;2.38;;;;;;;21.00;58.05;100305.53;5053588;28;20062;-70
2021/08/06 06:13:48;;;;;;;7.35;2.38;;;;;;;20.92;58.31;100307.31;5055631;28;20065;-71
2021/08/06 06:16:15;;;;;;;11.10;2.72;;;;;;;20.84;58.69;100294.06;5059637;28;20048;-71
2021/08/06 06:18:42;;;;;;;8.65;1.63;;;;;;;20.79;58.70;100298.00;5067052;28;20497;-72
2021/08/06 06:21:10;;;;;;;6.25;1.90;;;;;;;20.75;58.84;100301.88;5059043;28;20071;-72
2021/08/06 06:23:37;;;;;;;9.10;1.70;;;;;;;20.68;59.10;100290.28;5072158;28;20040;-72
2021/08/06 06:26:06;;;;;;;6.15;1.80;;;;;;;20.64;59.27;100295.84;5055828;28;20485;-71
2021/08/06 06:28:34;;;;;;;4.82;2.03;;;;;;;20.58;59.31;100281.09;5063403;28;20409;-73
2021/08/06 06:31:01;;;;;;;9.70;2.58;;;;;;;20.50;59.54;100273.50;5070082;28;20143;-73
2021/08/06 06:33:27;;;;;;;3.55;1.80;;;;;;;20.62;59.58;100291.75;5067291;28;20068;-74
2021/08/06 06:35:55;;;;;;;9.50;2.28;;;;;;;20.51;59.46;100272.34;5072754;28;20098;-66
2021/08/06 06:38:21;;;;;;;6.72;1.75;;;;;;;20.62;59.44;100294.56;5063399;28;20139;-66
2021/08/06 06:40:49;;;;;;;11.48;2.80;;;;;;;20.65;59.37;100288.16;5052912;28;20084;-75
2021/08/06 06:43:16;;;;;;;4.30;2.00;;;;;;;20.69;59.50;100291.97;5062240;28;20123;-75
2021/08/06 06:45:43;;;;;;;6.43;1.92;;;;;;;20.71;59.67;100292.41;5065163;28;20068;-75
2021/08/06 06:48:10;;;;;;;10.60;2.22;;;;;;;20.64;59.87;100287.34;5055144;28;20071;-75
2021/08/06 06:50:37;;;;;;;10.40;2.22;;;;;;;20.78;59.80;100293.47;5052767;28;20045;-75
2021/08/06 06:53:04;;;;;;;11.00;1.95;;;;;;;20.80;59.50;100304.47;5066380;28;20080;-76
2021/08/06 06:55:31;;;;;;;10.32;2.78;;;;;;;20.81;59.27;100306.13;5050352;28;20128;-74
2021/08/06 06:57:58;;;;;;;7.95;1.58;;;;;;;20.71;59.53;100286.75;5052447;28;20131;-75
2021/08/06 07:00:32;;;;;;;7.63;2.03;;;;;;;20.69;59.64;100287.13;5053642;28;20059;-75
2021/08/06 07:03:00;;;;;;;4.78;1.92;;;;;;;20.82;59.26;100305.78;5059788;28;20037;-75
2021/08/06 07:05:28;;;;;;;8.70;2.22;;;;;;;20.85;58.88;100295.72;5049943;28;20650;-75
2021/08/06 07:07:55;;;;;;;9.85;1.88;;;;;;;20.96;58.82;100301.75;5055618;28;20127;-73
2021/08/06 07:10:22;;;;;;;9.75;2.10;;;;;;;21.01;58.85;100299.50;5050685;28;20091;-73
2021/08/06 07:12:50;;;;;;;8.32;2.00;;;;;;;21.01;58.61;100298.66;5051808;28;20492;-74
2021/08/06 07:15:17;;;;;;;8.82;1.98;;;;;;;21.07;58.12;100297.25;5056361;28;20068;-72
2021/08/06 07:17:44;;;;;;;6.00;2.58;;;;;;;21.11;58.57;100303.03;5060432;28;20215;-75
2021/08/06 07:20:14;;;;;;;4.07;1.70;;;;;;;21.15;58.11;100296.25;5071835;28;20051;-75
2021/08/06 07:22:42;;;;;;;9.27;2.58;;;;;;;21.25;57.92;100297.78;5065047;28;20136;-75
2021/08/06 07:25:11;;;;;;;8.02;2.05;;;;;;;21.34;57.87;100290.00;5062246;28;20083;-76
2021/08/06 07:27:39;;;;;;;8.25;3.70;;;;;;;21.39;57.26;100288.91;5070044;28;20140;-77
2021/08/06 07:30:07;;;;;;;4.88;2.50;;;;;;;21.47;56.54;100283.09;5051379;28;20163;-75
2021/08/06 07:32:35;;;;;;;10.65;2.15;;;;;;;21.50;56.23;100279.53;5060558;28;20124;-76
2021/08/06 07:35:03;;;;;;;9.23;2.15;;;;;;;21.59;56.24;100289.91;5067320;28;20055;-76
2021/08/06 07:37:30;;;;;;;5.28;1.63;;;;;;;21.57;55.87;100276.03;5059753;28;20127;-76
2021/08/06 07:39:57;;;;;;;4.90;1.20;;;;;;;21.70;55.38;100286.16;5056457;28;20049;-76
2021/08/06 07:42:24;;;;;;;3.72;2.55;;;;;;;21.77;55.38;100291.22;5068931;28;20071;-75
2021/08/06 07:44:51;;;;;;;7.05;1.63;;;;;;;21.83;54.81;100295.47;5061324;28;20068;-76
2021/08/06 07:47:18;;;;;;;3.95;1.60;;;;;;;21.85;54.95;100287.41;5052513;28;20563;-76
2021/08/06 07:49:45;;;;;;;9.10;1.67;;;;;;;21.97;55.11;100306.41;5064321;28;20056;-76
2021/08/06 07:52:13;;;;;;;2.92;1.55;;;;;;;21.70;54.63;100245.56;5050939;28;20143;-75
2021/08/06 07:54:41;;;;;;;7.38;1.67;;;;;;;22.07;54.19;100311.56;5064509;28;20051;-75
2021/08/06 07:57:09;;;;;;;6.80;1.58;;;;;;;22.14;53.77;100308.09;5056270;28;20665;-75
2021/08/06 07:59:37;;;;;;;8.52;3.65;;;;;;;22.12;53.71;100293.38;5057036;28;20094;-76
2021/08/06 08:02:04;;;;;;;9.85;3.92;;;;;;;22.23;54.03;100305.94;5063749;28;20127;-76
2021/08/06 08:04:32;;;;;;;15.02;2.25;;;;;;;22.42;53.13;100314.56;5054698;28;20155;-76
2021/08/06 08:06:58;;;;;;;7.78;2.50;;;;;;;22.54;52.72;100307.13;5090769;28;20044;-76
2021/08/06 08:09:25;;;;;;;8.88;2.03;;;;;;;22.60;52.63;100311.38;5075121;28;20124;-76
2021/08/06 08:11:52;;;;;;;7.70;2.10;;;;;;;22.57;52.05;100307.22;5064161;28;20049;-77
2021/08/06 08:14:19;;;;;;;5.15;1.45;;;;;;;22.62;52.11;100314.66;5067363;28;20040;-76
2021/08/06 08:16:47;;;;;;;4.20;1.45;;;;;;;22.67;52.06;100318.06;5070707;28;20055;-75
2021/08/06 08:19:14;;;;;;;6.15;1.70;;;;;;;22.66;52.10;100309.88;5077802;28;20083;-75
2021/08/06 08:21:41;;;;;;;16.33;6.88;;;;;;;22.86;52.00;100313.63;5062053;28;20151;-76
2021/08/06 08:24:08;;;;;;;5.72;1.70;;;;;;;23.18;51.08;100322.97;5081520;28;20131;-76
2021/08/06 08:26:35;;;;;;;3.92;1.50;;;;;;;23.46;50.51;100313.41;5068399;28;20135;-76
2021/08/06 08:29:02;;;;;;;6.38;2.60;;;;;;;23.66;49.93;100312.22;5070965;28;20067;-76
2021/08/06 08:31:29;;;;;;;2.60;1.08;;;;;;;23.55;49.74;100316.84;5062387;28;20131;-76
2021/08/06 08:33:55;;;;;;;3.13;1.52;;;;;;;23.25;49.75;100319.44;5056683;28;20455;-75
2021/08/06 08:36:22;;;;;;;4.30;1.15;;;;;;;22.93;49.63;100313.81;5060074;28;20087;-75
2021/08/06 08:38:49;;;;;;;1.92;1.17;;;;;;;22.76;50.06;100320.69;5062145;28;20127;-75
2021/08/06 08:41:16;;;;;;;3.97;1.70;;;;;;;22.62;49.35;100297.56;5062295;28;20131;-76
2021/08/06 08:43:43;;;;;;;6.43;1.52;;;;;;;22.83;49.89;100309.47;5070359;28;20072;-76
2021/08/06 08:46:10;;;;;;;8.73;2.45;;;;;;;22.74;49.56;100283.25;5048408;28;20128;-76
2021/08/06 08:48:38;;;;;;;4.05;1.67;;;;;;;23.01;49.52;100315.66;5058316;28;20500;-75
2021/08/06 08:51:05;;;;;;;3.22;1.10;;;;;;;23.30;49.32;100322.00;5062838;28;20529;-77
2021/08/06 08:53:32;;;;;;;9.73;2.38;;;;;;;23.52;48.96;100328.97;5034127;28;20127;-75
2021/08/06 08:56:00;;;;;;;5.32;1.60;;;;;;;23.71;48.67;100309.06;5049078;28;20131;-76
2021/08/06 08:58:26;;;;;;;4.60;1.75;;;;;;;24.18;47.87;100316.53;5053829;28;20128;-76
2021/08/06 09:00:53;;;;;;;7.03;1.30;;;;;;;24.61;47.49;100323.03;5049555;28;20041;-75
2021/08/06 09:03:38;;;;;;;4.38;1.80;;;;;;;24.99;47.18;100315.47;5053104;28;20075;-76
2021/08/06 09:06:07;;;;;;;3.88;1.75;;;;;;;25.29;46.29;100313.50;5054827;28;20133;-75
2021/08/06 09:08:36;;;;;;;7.07;2.03;;;;;;;25.50;46.23;100307.28;5036647;28;20551;-76
2021/08/06 09:11:23;;;;;;;9.15;1.75;;;;;;;25.52;45.38;100306.91;5055575;28;20186;-77
2021/08/06 09:13:50;;;;;;;4.72;2.03;;;;;;;25.59;45.96;100306.16;5053583;28;20076;-75
2021/08/06 09:16:17;;;;;;;6.32;1.88;;;;;;;26.08;44.95;100300.22;5054874;28;20128;-76
2021/08/06 09:18:44;;;;;;;6.45;1.58;;;;;;;26.58;44.36;100312.22;5045199;28;20289;-75
2021/08/06 09:21:17;;;;;;;4.25;1.50;;;;;;;26.64;43.51;100307.78;5046208;28;20045;-77
2021/08/06 09:23:46;;;;;;;6.45;1.23;;;;;;;26.35;43.45;100306.66;5069757;28;20040;-75
2021/08/06 09:26:32;;;;;;;5.20;1.58;;;;;;;26.35;43.99;100297.22;5050675;28;20128;-77
2021/08/06 09:29:05;;;;;;;3.78;1.20;;;;;;;26.80;43.16;100304.59;5049618;28;20092;-76
2021/08/06 09:31:35;;;;;;;6.55;1.88;;;;;;;26.86;42.59;100291.56;5053752;28;20045;-75
2021/08/06 09:34:18;;;;;;;6.63;1.90;;;;;;;27.23;42.37;100292.66;5048806;28;20052;-76
2021/08/06 09:37:12;;;;;;;7.60;1.67;;;;;;;27.55;41.54;100293.63;5044594;28;20103;-76
2021/08/06 09:39:52;;;;;;;6.47;1.70;;;;;;;27.75;41.07;100287.59;5034130;28;20120;-76
2021/08/06 09:42:32;;;;;;;4.38;1.30;;;;;;;27.82;40.46;100291.31;5039642;28;20448;-75
2021/08/06 09:45:02;;;;;;;1.90;1.15;;;;;;;27.49;40.24;100289.53;5035825;28;20452;-76
2021/08/06 09:47:30;;;;;;;3.13;1.42;;;;;;;27.04;40.53;100294.53;5036145;28;20136;-75
2021/08/06 09:49:58;;;;;;;5.82;1.83;;;;;;;26.90;40.61;100285.84;5059682;28;20408;-75
2021/08/06 09:52:37;;;;;;;3.33;1.20;;;;;;;27.30;40.38;100286.97;5071516;28;20123;-76
2021/08/06 09:55:37;;;;;;;4.43;1.30;;;;;;;27.67;39.97;100294.53;5083228;28;20051;-76
2021/08/06 09:58:10;;;;;;;6.00;1.35;;;;;;;27.05;40.23;100281.88;5074436;28;20072;-75
2021/08/06 10:00:44;;;;;;;4.45;1.27;;;;;;;27.03;40.83;100278.59;5068254;28;20076;-76
2021/08/06 10:03:35;;;;;;;4.32;1.45;;;;;;;26.97;40.81;100279.34;5070600;28;20052;-75
2021/08/06 10:06:10;;;;;;;6.97;1.20;;;;;;;27.02;40.07;100279.00;5072542;28;20106;-75
2021/08/06 10:08:37;;;;;;;4.03;1.08;;;;;;;26.81;40.52;100277.63;5071221;28;20113;-76
2021/08/06 10:11:04;;;;;;;2.13;1.05;;;;;;;26.69;40.22;100278.75;5061026;28;20131;-76
2021/08/06 10:13:31;;;;;;;3.10;1.00;;;;;;;26.67;40.11;100277.53;5073875;28;20144;-75
2021/08/06 10:15:58;;;;;;;3.20;1.50;;;;;;;26.45;40.15;100282.19;5072215;28;20087;-74
2021/08/06 10:18:26;;;;;;;3.65;1.20;;;;;;;26.48;39.81;100275.72;5063925;28;20040;-74
2021/08/06 10:20:53;;;;;;;3.40;1.02;;;;;;;26.75;39.76;100272.66;5057512;28;20051;-74
2021/08/06 10:23:19;;;;;;;4.95;1.20;;;;;;;27.39;39.49;100273.09;5054052;28;20041;-75
2021/08/06 10:25:47;;;;;;;4.43;1.00;;;;;;;27.75;38.48;100276.09;5054144;28;20076;-75
2021/08/06 10:28:14;;;;;;;3.22;1.02;;;;;;;28.17;38.08;100266.84;5063531;28;20461;-75
2021/08/06 10:30:41;;;;;;;3.55;0.80;;;;;;;28.47;37.66;100277.13;5067114;28;20460;-75
2021/08/06 10:33:27;;;;;;;2.97;1.25;;;;;;;28.69;36.70;100258.66;5066316;28;20098;-75
2021/08/06 10:36:01;;;;;;;2.30;0.95;;;;;;;28.69;36.47;100254.97;5047279;28;20470;-75
2021/08/06 10:38:42;;;;;;;7.18;2.00;;;;;;;28.37;37.08;100258.63;5059353;28;20075;-75
2021/08/06 10:41:12;;;;;;;4.70;1.15;;;;;;;28.01;36.85;100258.59;5062161;28;20080;-75
2021/08/06 10:43:41;;;;;;;3.15;1.33;;;;;;;27.74;37.07;100263.81;5062554;28;20044;-75
2021/08/06 10:46:09;;;;;;;2.85;1.08;;;;;;;27.57;37.62;100271.13;5054499;28;20076;-77
2021/08/06 10:48:42;;;;;;;2.00;1.10;;;;;;;27.72;37.45;100262.56;5055290;28;20044;-77
2021/08/06 10:51:12;;;;;;;3.67;1.45;;;;;;;27.43;37.78;100259.59;5058121;28;20445;-76
2021/08/06 10:53:40;;;;;;;3.83;1.63;;;;;;;26.94;38.14;100235.16;5056738;28;20097;-76
2021/08/06 10:56:16;;;;;;;3.05;1.30;;;;;;;26.64;38.54;100256.22;5057866;28;20408;-76
2021/08/06 10:58:48;;;;;;;4.93;1.40;;;;;;;26.34;38.42;100261.25;5052923;28;20088;-75
2021/08/06 11:01:25;;;;;;;4.40;1.98;;;;;;;26.38;38.81;100259.22;5058185;28;20128;-75
2021/08/06 11:04:03;;;;;;;5.20;2.22;;;;;;;26.43;38.68;100253.16;5059143;28;20563;-76
2021/08/06 11:06:41;;;;;;;3.63;1.55;;;;;;;26.29;39.14;100256.72;5063808;28;20068;-76
2021/08/06 11:09:31;;;;;;;3.25;1.85;;;;;;;26.28;39.15;100260.78;5069258;28;20080;-75
2021/08/06 11:12:02;;;;;;;7.95;1.58;;;;;;;26.17;39.12;100257.81;5061012;28;20097;-76
2021/08/06 11:14:29;;;;;;;5.70;1.50;;;;;;;26.20;39.57;100259.88;5051506;28;20068;-74
2021/08/06 11:17:01;;;;;;;5.20;1.40;;;;;;;26.34;38.80;100255.53;5052639;28;20095;-74
2021/08/06 11:19:45;;;;;;;6.20;1.70;;;;;;;26.32;39.41;100246.50;5072577;28;20044;-74
2021/08/06 11:22:31;;;;;;;3.22;1.70;;;;;;;26.77;39.24;100247.28;5073577;28;20139;-74
2021/08/06 11:25:25;;;;;;;5.13;1.90;;;;;;;27.19;38.63;100228.75;5071654;28;20554;-75
2021/08/06 11:28:02;;;;;;;2.55;1.30;;;;;;;27.50;38.61;100228.06;5071191;28;20455;-75
2021/08/06 11:30:34;;;;;;;5.22;2.38;;;;;;;27.90;38.05;100229.06;5072270;28;20519;-75
2021/08/06 11:33:07;;;;;;;6.45;1.98;;;;;;;28.03;37.91;100215.09;5071343;28;20143;-75